Terminal Aerodrome Forecast
Issued by NWS

Home | Current Version | Previous Version | Text Only | Print | Product List | Glossary On
Versions: 1 2 3 4 5 6 7 8 9 10 11 12 13 14 15 16 17 18 19 20 21 22 23 24 25 26
000
FTUS46 KOTX 261737
TAFCOE
TAF
KCOE 261737Z 2618/2718 16012KT P6SM SCT030 BKN035
     FM262100 20009KT P6SM VCSH SCT040 BKN060 BKN120
     FM270200 19007KT P6SM SCT060 BKN150
     FM271600 20011G15KT P6SM VCSH BKN070 OVC100
      AMD LTD TO CLD AND VIS=

USA.gov is the U.S. government's official web portal to all federal, state and local government web resources and services.